createdAt,value
2023-05-13T00:01:38.970Z,102120.41
2023-05-13T00:04:06.904Z,102062.84
2023-05-13T00:06:33.715Z,102123.66
2023-05-13T00:09:00.813Z,102122.03
2023-05-13T00:11:27.728Z,102127.47
2023-05-13T00:13:54.657Z,102098.16
2023-05-13T00:16:24.356Z,102120.34
2023-05-13T00:18:51.731Z,102122.84
2023-05-13T00:21:18.539Z,102123.59
2023-05-13T00:23:45.162Z,101978.41
2023-05-13T00:26:11.693Z,102119.03
2023-05-13T00:28:38.478Z,102050.13
2023-05-13T00:31:05.088Z,102127.84
2023-05-13T00:33:31.864Z,102071.50
2023-05-13T00:35:58.482Z,102116.47
2023-05-13T00:38:25.009Z,102122.06
2023-05-13T00:40:51.608Z,102059.31
2023-05-13T00:43:18.157Z,102128.56
2023-05-13T00:45:44.761Z,102126.22
2023-05-13T00:48:11.754Z,102123.38
2023-05-13T00:53:12.942Z,102136.38
2023-05-13T00:55:44.210Z,102139.31
2023-05-13T00:58:11.663Z,102141.13
2023-05-13T01:00:47.992Z,102137.44
2023-05-13T01:03:27.309Z,102133.56
2023-05-13T01:06:07.804Z,102129.59
2023-05-13T01:08:58.627Z,102140.19
2023-05-13T01:11:30.184Z,102144.69
2023-05-13T01:14:06.705Z,102141.13
2023-05-13T01:16:40.999Z,102138.22
2023-05-13T01:19:26.388Z,102142.41
2023-05-13T01:21:53.841Z,102123.31
2023-05-13T01:24:20.575Z,102141.69
2023-05-13T01:26:47.737Z,102094.72
2023-05-13T01:29:14.527Z,102123.84
2023-05-13T01:31:42.760Z,102148.72
2023-05-13T01:34:11.567Z,102156.25
2023-05-13T01:36:40.063Z,102140.78
2023-05-13T01:39:08.496Z,102152.97
2023-05-13T01:41:35.299Z,102156.56
2023-05-13T01:44:04.794Z,102148.31
2023-05-13T01:46:31.475Z,102167.00
2023-05-13T01:48:59.229Z,102168.84
2023-05-13T01:51:25.938Z,102161.81
2023-05-13T01:53:52.551Z,102109.69
2023-05-13T01:56:19.098Z,102165.78
2023-05-13T01:58:46.220Z,102175.31
2023-05-13T02:01:12.761Z,102081.78
2023-05-13T02:03:39.505Z,102168.81
2023-05-13T02:06:06.486Z,102122.19
2023-05-13T02:08:33.125Z,102169.81
2023-05-13T02:11:00.752Z,102164.25
2023-05-13T02:13:27.391Z,102158.72
2023-05-13T02:15:54.704Z,102164.25
2023-05-13T02:18:22.404Z,102168.03
2023-05-13T02:20:49.241Z,102166.41
2023-05-13T02:23:16.897Z,102145.16
2023-05-13T02:25:44.109Z,102172.22
2023-05-13T02:28:11.056Z,102175.41
2023-05-13T02:30:37.703Z,102111.53
2023-05-13T02:33:04.348Z,102173.22
2023-05-13T02:35:31.062Z,102175.81
2023-05-13T02:37:58.428Z,102142.47
2023-05-13T02:40:25.008Z,102177.13
2023-05-13T02:42:51.669Z,102159.84
2023-05-13T02:45:18.694Z,102134.63
2023-05-13T02:47:45.301Z,102158.22
2023-05-13T02:50:12.690Z,102075.88
2023-05-13T02:52:40.218Z,102184.50
2023-05-13T02:55:07.825Z,102124.94
2023-05-13T02:57:34.727Z,102172.06
2023-05-13T03:00:01.624Z,102176.22
2023-05-13T03:02:28.473Z,102018.66
2023-05-13T03:04:55.770Z,102119.94
2023-05-13T03:07:22.860Z,102176.34
2023-05-13T03:09:49.488Z,102157.88
2023-05-13T03:12:16.289Z,102186.75
2023-05-13T03:14:44.473Z,102174.63
2023-05-13T03:17:11.474Z,102193.75
2023-05-13T03:19:39.316Z,102168.38
2023-05-13T03:22:06.640Z,102190.97
2023-05-13T03:24:33.360Z,102184.53
2023-05-13T03:27:00.327Z,102171.06
2023-05-13T03:29:26.925Z,102128.06
2023-05-13T03:31:54.349Z,102194.53
2023-05-13T03:34:21.062Z,102191.75
2023-05-13T03:36:47.689Z,102196.00
2023-05-13T03:39:14.251Z,102177.38
2023-05-13T03:41:41.051Z,102193.19
2023-05-13T03:44:07.709Z,102167.78
2023-05-13T03:46:34.372Z,102136.81
2023-05-13T03:49:01.013Z,102189.16
2023-05-13T03:51:27.795Z,102201.75
2023-05-13T03:53:54.363Z,102199.16
2023-05-13T03:56:21.776Z,102197.91
2023-05-13T03:58:48.443Z,102199.44
2023-05-13T04:01:15.016Z,102193.28
2023-05-13T04:03:44.396Z,102202.91
2023-05-13T04:06:11.132Z,102196.25
2023-05-13T04:08:37.728Z,102202.53
2023-05-13T04:11:04.452Z,102170.28
2023-05-13T04:13:31.047Z,102202.91
2023-05-13T04:15:58.236Z,102147.47
2023-05-13T04:18:24.851Z,102202.28
2023-05-13T04:20:51.440Z,102192.69
2023-05-13T04:23:18.066Z,102182.84
2023-05-13T04:25:50.910Z,102201.22
2023-05-13T04:28:18.391Z,102071.34
2023-05-13T04:30:45.329Z,102200.25
2023-05-13T04:33:12.127Z,102203.84
2023-05-13T04:35:39.043Z,102142.78
2023-05-13T04:38:05.915Z,102202.09
2023-05-13T04:40:32.591Z,102150.84
2023-05-13T04:42:59.175Z,102211.56
2023-05-13T04:45:25.770Z,102206.97
2023-05-13T04:47:52.341Z,102201.59
2023-05-13T04:50:19.143Z,102197.63
2023-05-13T04:52:47.441Z,102211.38
2023-05-13T04:55:14.194Z,102204.56
2023-05-13T04:57:40.913Z,102202.19
2023-05-13T05:00:09.604Z,102203.19
2023-05-13T05:02:36.285Z,102179.59
2023-05-13T05:05:03.498Z,102205.78
2023-05-13T05:07:30.109Z,102205.69
2023-05-13T05:09:56.835Z,102206.13
2023-05-13T05:12:23.560Z,102209.13
2023-05-13T05:14:50.114Z,102205.56
2023-05-13T05:17:16.722Z,102203.75
2023-05-13T05:19:43.447Z,102201.16
2023-05-13T05:22:10.064Z,102203.66
2023-05-13T05:24:36.761Z,102199.41
2023-05-13T05:27:03.480Z,102206.25
2023-05-13T05:29:30.024Z,102203.38
2023-05-13T05:31:56.669Z,102196.41
2023-05-13T05:34:23.377Z,102193.34
2023-05-13T05:36:50.028Z,102195.63
2023-05-13T05:39:16.583Z,102196.16
2023-05-13T05:41:43.160Z,102193.22
2023-05-13T05:44:09.756Z,102188.09
2023-05-13T05:46:36.353Z,102146.28
2023-05-13T05:49:03.850Z,102185.56
2023-05-13T05:51:30.576Z,102183.13
2023-05-13T05:53:57.114Z,102185.25
2023-05-13T05:56:23.704Z,102184.28
2023-05-13T05:58:50.288Z,102188.59
2023-05-13T06:01:16.866Z,102140.84
2023-05-13T06:03:43.655Z,102160.97
2023-05-13T06:06:10.429Z,102189.75
2023-05-13T06:08:37.054Z,102179.00
2023-05-13T06:11:03.618Z,102181.34
2023-05-13T06:13:30.262Z,102173.44
2023-05-13T06:15:57.017Z,102135.09
2023-05-13T06:18:23.753Z,102097.75
2023-05-13T06:20:50.381Z,102183.81
2023-05-13T06:23:17.027Z,102175.03
2023-05-13T06:25:43.675Z,102175.72
2023-05-13T06:28:11.366Z,102179.38
2023-05-13T06:30:38.813Z,102157.44
2023-05-13T06:33:05.645Z,102176.94
2023-05-13T06:35:32.260Z,102177.94
2023-05-13T06:37:58.819Z,102171.34
2023-05-13T06:40:25.495Z,102037.16
2023-05-13T06:42:52.084Z,102171.72
2023-05-13T06:45:26.046Z,102114.66
2023-05-13T06:47:53.605Z,102176.41
2023-05-13T06:50:20.805Z,102149.94
2023-05-13T06:52:47.597Z,102178.59
2023-05-13T06:55:14.283Z,102160.69
2023-05-13T06:57:43.476Z,102112.41
2023-05-13T07:00:10.851Z,102174.47
2023-05-13T07:02:37.773Z,102166.19
2023-05-13T07:05:05.146Z,102173.66
2023-05-13T07:07:31.773Z,102167.25
2023-05-13T07:09:58.406Z,102164.94
2023-05-13T07:12:25.182Z,102164.03
2023-05-13T07:14:52.031Z,102164.91
2023-05-13T07:17:18.656Z,102161.34
2023-05-13T07:19:45.254Z,102168.22
2023-05-13T07:22:12.003Z,102169.38
2023-05-13T07:24:38.948Z,102120.47
2023-05-13T07:27:06.081Z,102170.94
2023-05-13T07:29:33.397Z,102164.06
2023-05-13T07:32:05.487Z,102172.09
2023-05-13T07:34:32.696Z,102132.88
2023-05-13T07:36:59.347Z,102157.53
2023-05-13T07:39:26.773Z,102143.47
2023-05-13T07:41:53.718Z,102159.97
2023-05-13T07:44:20.300Z,102141.47
2023-05-13T07:46:46.924Z,102153.31
2023-05-13T07:49:13.750Z,102101.66
2023-05-13T07:51:40.593Z,102147.00
2023-05-13T07:54:07.171Z,102140.72
2023-05-13T07:56:33.887Z,102117.44
2023-05-13T07:59:00.561Z,102144.97
2023-05-13T08:01:27.421Z,102150.88
2023-05-13T08:03:54.255Z,102135.72
2023-05-13T08:06:21.114Z,102133.22
2023-05-13T08:08:47.655Z,102113.28
2023-05-13T08:11:14.368Z,102141.59
2023-05-13T08:13:40.984Z,102149.78
2023-05-13T08:16:07.780Z,102136.75
2023-05-13T08:18:34.478Z,102142.91
2023-05-13T08:21:01.384Z,102140.31
2023-05-13T08:23:40.932Z,102147.41
2023-05-13T08:26:11.661Z,102117.00
2023-05-13T08:28:38.777Z,102100.25
2023-05-13T08:31:05.464Z,102137.16
2023-05-13T08:33:32.657Z,102116.19
2023-05-13T08:36:01.195Z,102127.97
2023-05-13T08:38:27.857Z,102129.66
2023-05-13T08:40:54.532Z,102117.31
2023-05-13T08:43:24.359Z,102132.00
2023-05-13T08:45:53.568Z,102091.25
2023-05-13T08:48:20.667Z,102112.66
2023-05-13T08:50:48.094Z,102117.66
2023-05-13T08:53:17.170Z,102135.94
2023-05-13T08:55:43.881Z,102135.63
2023-05-13T08:58:10.530Z,102119.19
2023-05-13T09:00:37.356Z,102097.06
2023-05-13T09:03:04.281Z,102115.25
2023-05-13T09:05:32.177Z,102119.38
2023-05-13T09:07:59.089Z,102112.88
2023-05-13T09:10:25.644Z,102141.84
2023-05-13T09:12:56.234Z,102110.28
2023-05-13T09:15:25.571Z,102107.91
2023-05-13T09:18:01.412Z,102140.19
2023-05-13T09:20:28.852Z,102135.22
2023-05-13T09:23:04.158Z,102126.31
2023-05-13T09:25:31.513Z,102139.69
2023-05-13T09:28:00.070Z,102132.97
2023-05-13T09:30:31.095Z,102134.38
2023-05-13T09:33:12.277Z,102130.56
2023-05-13T09:35:41.973Z,102134.00
2023-05-13T09:38:31.946Z,102122.88
2023-05-13T09:41:00.752Z,102130.75
2023-05-13T09:43:32.379Z,101996.34
2023-05-13T09:46:05.687Z,102133.94
2023-05-13T09:48:34.106Z,102094.88
2023-05-13T09:51:01.398Z,102123.31
2023-05-13T09:53:28.744Z,102092.78
2023-05-13T09:55:57.365Z,102129.63
2023-05-13T09:58:25.845Z,102136.75
2023-05-13T10:00:52.794Z,102138.53
2023-05-13T10:03:19.651Z,102135.72
2023-05-13T10:05:50.498Z,102121.91
2023-05-13T10:08:18.426Z,102125.66
2023-05-13T10:10:47.516Z,102127.44
2023-05-13T10:13:16.828Z,102105.44
2023-05-13T10:15:55.425Z,102118.00
2023-05-13T10:18:24.174Z,102107.84
2023-05-13T10:20:53.927Z,102112.28
2023-05-13T10:23:21.823Z,102115.28
2023-05-13T10:25:49.039Z,102112.66
2023-05-13T10:28:16.853Z,102117.78
2023-05-13T10:30:44.255Z,102106.69
2023-05-13T10:33:11.123Z,102109.09
2023-05-13T10:35:42.693Z,102108.84
2023-05-13T10:38:16.523Z,102064.44
2023-05-13T10:41:09.686Z,102103.56
2023-05-13T10:43:37.539Z,102097.84
2023-05-13T10:46:11.520Z,102079.72
2023-05-13T10:48:51.042Z,102080.94
2023-05-13T10:51:24.132Z,102084.75
2023-05-13T10:53:53.292Z,102087.78
2023-05-13T10:56:22.187Z,102087.34
2023-05-13T10:59:01.541Z,102086.81
2023-05-13T11:01:35.772Z,102079.25
2023-05-13T11:04:05.301Z,102062.59
2023-05-13T11:06:37.475Z,102040.50
2023-05-13T11:09:15.132Z,102013.84
2023-05-13T11:11:42.484Z,102065.84
2023-05-13T11:14:16.307Z,102035.50
2023-05-13T11:16:47.993Z,102062.16
2023-05-13T11:19:23.781Z,102063.44
2023-05-13T11:21:53.211Z,102056.38
2023-05-13T11:24:21.821Z,102068.00
2023-05-13T11:26:54.389Z,102062.69
2023-05-13T11:29:29.997Z,102066.53
2023-05-13T11:32:00.513Z,102061.88
2023-05-13T11:34:28.362Z,102041.97
2023-05-13T11:37:03.775Z,102054.13
2023-05-13T11:39:30.818Z,102050.47
2023-05-13T11:41:57.725Z,102050.94
2023-05-13T11:44:25.672Z,102051.69
2023-05-13T11:46:57.447Z,102045.06
2023-05-13T11:49:44.312Z,102058.16
2023-05-13T11:52:15.431Z,102060.31
2023-05-13T11:54:47.676Z,102003.22
2023-05-13T11:57:24.164Z,102063.22
2023-05-13T11:59:55.868Z,102059.16
2023-05-13T12:02:30.786Z,101998.34
2023-05-13T12:05:04.551Z,102017.91
2023-05-13T12:07:32.052Z,102035.59
2023-05-13T12:10:00.766Z,102016.84
2023-05-13T12:12:29.313Z,102063.81
2023-05-13T12:14:59.792Z,102065.56
2023-05-13T12:17:26.743Z,102059.97
2023-05-13T12:20:08.829Z,102053.91
2023-05-13T12:22:36.568Z,102041.16
2023-05-13T12:25:35.169Z,102054.44
2023-05-13T12:28:14.289Z,102049.06
2023-05-13T12:30:52.692Z,102049.78
2023-05-13T12:33:27.198Z,102053.50
2023-05-13T12:36:14.770Z,101997.50
2023-05-13T12:39:00.050Z,102022.44
2023-05-13T12:41:51.984Z,102038.78
2023-05-13T12:44:18.797Z,102033.00
2023-05-13T12:46:57.378Z,102027.06
2023-05-13T12:49:24.272Z,101978.13
2023-05-13T12:51:52.269Z,102022.94
2023-05-13T12:54:19.178Z,101934.84
2023-05-13T12:56:46.061Z,101994.31
2023-05-13T12:59:14.696Z,101996.47
2023-05-13T13:01:42.990Z,102028.00
2023-05-13T13:04:09.889Z,102017.75
2023-05-13T13:06:36.666Z,102010.94
2023-05-13T13:09:03.447Z,102011.59
2023-05-13T13:11:30.146Z,102019.56
2023-05-13T13:13:56.735Z,102017.34
2023-05-13T13:16:23.654Z,102013.41
2023-05-13T13:18:53.442Z,102004.50
2023-05-13T13:21:22.237Z,102006.63
2023-05-13T13:23:48.851Z,101989.25
2023-05-13T13:26:15.406Z,101989.69
2023-05-13T13:28:44.352Z,101962.63
2023-05-13T13:31:12.214Z,101982.94
2023-05-13T13:33:39.063Z,101965.94
2023-05-13T13:36:06.096Z,101975.03
2023-05-13T13:38:32.829Z,101986.66
2023-05-13T13:40:59.410Z,101984.06
2023-05-13T13:43:25.977Z,101977.47
2023-05-13T13:45:52.727Z,101977.25
2023-05-13T13:48:19.427Z,101969.91
2023-05-13T13:50:47.761Z,101983.59
2023-05-13T13:55:48.737Z,101594.78
2023-05-13T13:58:15.922Z,101974.31
2023-05-13T14:00:42.576Z,101895.41
2023-05-13T14:03:09.369Z,101976.56
2023-05-13T14:05:36.092Z,101961.84
2023-05-13T14:08:02.757Z,101706.88
2023-05-13T14:10:29.499Z,101865.63
2023-05-13T14:12:56.143Z,101968.69
2023-05-13T14:15:24.422Z,101962.16
2023-05-13T14:17:51.056Z,101954.25
2023-05-13T14:20:17.769Z,101952.06
2023-05-13T14:22:44.400Z,101957.19
2023-05-13T14:25:11.037Z,101925.97
2023-05-13T14:27:37.642Z,101899.81
2023-05-13T14:30:05.539Z,101951.53
2023-05-13T14:32:32.945Z,101948.47
2023-05-13T14:34:59.607Z,101934.06
2023-05-13T14:37:26.351Z,101930.06
2023-05-13T14:39:53.029Z,101947.88
2023-05-13T14:42:19.629Z,101923.81
2023-05-13T14:44:46.301Z,101911.97
2023-05-13T14:47:13.100Z,101909.47
2023-05-13T14:49:39.636Z,101937.63
2023-05-13T14:52:06.341Z,101944.91
2023-05-13T14:54:35.839Z,101909.38
2023-05-13T14:57:07.058Z,101947.16
2023-05-13T14:59:34.106Z,101908.31
2023-05-13T15:02:02.703Z,101905.97
2023-05-13T15:04:29.475Z,101939.25
2023-05-13T15:06:56.847Z,101931.94
2023-05-13T15:09:23.877Z,101942.00
2023-05-13T15:11:50.728Z,101927.50
2023-05-13T15:14:18.817Z,101873.50
2023-05-13T15:16:51.160Z,101914.88
2023-05-13T15:19:18.815Z,101932.09
2023-05-13T15:21:45.849Z,101918.91
2023-05-13T15:24:15.402Z,101901.28
2023-05-13T15:26:43.329Z,101919.19
2023-05-13T15:29:09.969Z,101853.88
2023-05-13T15:31:36.554Z,101909.94
2023-05-13T15:34:03.410Z,101917.66
2023-05-13T15:36:29.961Z,101880.78
2023-05-13T15:38:56.567Z,101889.22
2023-05-13T15:41:23.111Z,101918.28
2023-05-13T15:43:49.733Z,101913.66
2023-05-13T15:46:16.652Z,101893.84
2023-05-13T15:48:43.365Z,101911.66
2023-05-13T15:51:09.934Z,101849.00
2023-05-13T15:53:36.510Z,101909.38
2023-05-13T15:56:03.161Z,101894.31
2023-05-13T15:58:29.797Z,101915.09
2023-05-13T16:00:56.372Z,101848.44
2023-05-13T16:03:22.995Z,101898.84
2023-05-13T16:05:49.706Z,101909.59
2023-05-13T16:08:16.494Z,101912.81
2023-05-13T16:10:43.271Z,101894.91
2023-05-13T16:13:09.870Z,101880.66
2023-05-13T16:15:36.551Z,101905.81
2023-05-13T16:18:03.742Z,101903.66
2023-05-13T16:20:30.443Z,101905.22
2023-05-13T16:22:57.037Z,101902.66
2023-05-13T16:25:24.861Z,101867.63
2023-05-13T16:27:51.901Z,101898.97
2023-05-13T16:30:18.496Z,101870.28
2023-05-13T16:32:47.792Z,101896.09
2023-05-13T16:35:14.684Z,101851.38
2023-05-13T16:37:41.400Z,101905.19
2023-05-13T16:40:08.720Z,101844.25
2023-05-13T16:42:35.289Z,101898.31
2023-05-13T16:45:01.969Z,101912.47
2023-05-13T16:47:28.836Z,101915.63
2023-05-13T16:49:56.389Z,101908.03
2023-05-13T16:52:24.050Z,101876.03
2023-05-13T16:54:50.854Z,101846.47
2023-05-13T16:57:19.374Z,101917.16
2023-05-13T16:59:46.038Z,101851.25
2023-05-13T17:02:12.803Z,101880.41
2023-05-13T17:04:39.434Z,101918.84
2023-05-13T17:07:06.890Z,101913.94
2023-05-13T17:09:33.906Z,101914.84
2023-05-13T17:12:00.575Z,101897.31
2023-05-13T17:14:27.367Z,101864.59
2023-05-13T17:16:54.084Z,101920.63
2023-05-13T17:19:20.914Z,101834.00
2023-05-13T17:21:47.580Z,101912.94
2023-05-13T17:24:14.133Z,101915.56
2023-05-13T17:26:41.195Z,101913.31
2023-05-13T17:29:07.933Z,101914.13
2023-05-13T17:31:34.513Z,101915.41
2023-05-13T17:34:01.133Z,101908.16
2023-05-13T17:36:27.849Z,101914.94
2023-05-13T17:38:54.465Z,101906.28
2023-05-13T17:41:21.916Z,101911.19
2023-05-13T17:43:48.591Z,101879.00
2023-05-13T17:46:15.308Z,101917.72
2023-05-13T17:48:42.516Z,101913.28
2023-05-13T17:51:09.379Z,101881.19
2023-05-13T17:53:35.978Z,101908.44
2023-05-13T17:56:02.678Z,101659.59
2023-05-13T17:58:29.310Z,101900.38
2023-05-13T18:00:56.078Z,101913.53
2023-05-13T18:03:22.769Z,101928.72
2023-05-13T18:05:49.532Z,101926.56
2023-05-13T18:08:16.264Z,101926.31
2023-05-13T18:10:43.654Z,101892.75
2023-05-13T18:13:11.150Z,101922.06
2023-05-13T18:15:37.922Z,101905.00
2023-05-13T18:18:04.732Z,101908.88
2023-05-13T18:20:32.996Z,101898.84
2023-05-13T18:23:00.045Z,101935.50
2023-05-13T18:25:26.732Z,101925.44
2023-05-13T18:27:54.447Z,101919.22
2023-05-13T18:30:21.385Z,101935.88
2023-05-13T18:32:48.365Z,101927.94
2023-05-13T18:35:16.202Z,101941.13
2023-05-13T18:37:42.886Z,101947.81
2023-05-13T18:40:10.004Z,101897.88
2023-05-13T18:42:36.777Z,101931.44
2023-05-13T18:45:03.582Z,101874.75
2023-05-13T18:47:30.145Z,101938.47
2023-05-13T18:49:56.711Z,101910.00
2023-05-13T18:52:23.318Z,101949.22
2023-05-13T18:54:49.905Z,101942.53
2023-05-13T18:57:16.941Z,101899.31
2023-05-13T18:59:43.619Z,101925.00
2023-05-13T19:02:10.515Z,101941.59
2023-05-13T19:04:37.177Z,101932.81
2023-05-13T19:07:03.754Z,101963.78
2023-05-13T19:09:30.521Z,101965.09
2023-05-13T19:11:57.193Z,101922.50
2023-05-13T19:14:23.760Z,101966.44
2023-05-13T19:16:50.407Z,101908.63
2023-05-13T19:19:17.176Z,101942.34
2023-05-13T19:21:43.810Z,101970.59
2023-05-13T19:24:10.437Z,101965.53
2023-05-13T19:26:37.166Z,101973.22
2023-05-13T19:29:03.886Z,101951.69
2023-05-13T19:31:31.607Z,101945.00
2023-05-13T19:33:58.471Z,101926.88
2023-05-13T19:36:26.525Z,101977.13
2023-05-13T19:38:53.756Z,101966.28
2023-05-13T19:41:20.476Z,101934.34
2023-05-13T19:43:47.125Z,101987.13
2023-05-13T19:46:13.791Z,101980.31
2023-05-13T19:48:40.620Z,101993.09
2023-05-13T19:51:07.306Z,101993.09
2023-05-13T19:53:33.949Z,101990.44
2023-05-13T19:56:01.361Z,101994.59
2023-05-13T19:58:28.568Z,101998.63
2023-05-13T20:00:56.073Z,101995.31
2023-05-13T20:03:22.949Z,101931.16
2023-05-13T20:05:50.769Z,101997.78
2023-05-13T20:08:17.482Z,102002.50
2023-05-13T20:10:44.170Z,101995.38
2023-05-13T20:13:10.930Z,101935.59
2023-05-13T20:15:37.657Z,101989.00
2023-05-13T20:18:04.371Z,102001.09
2023-05-13T20:20:31.006Z,101997.09
2023-05-13T20:22:57.553Z,101993.81
2023-05-13T20:25:24.184Z,101964.84
2023-05-13T20:27:50.821Z,101983.94
2023-05-13T20:30:17.564Z,101991.97
2023-05-13T20:32:44.272Z,101966.59
2023-05-13T20:35:10.929Z,101974.59
2023-05-13T20:37:37.523Z,101987.38
2023-05-13T20:40:04.729Z,101984.34
2023-05-13T20:42:32.089Z,101984.50
2023-05-13T20:44:58.652Z,101961.13
2023-05-13T20:47:25.273Z,101983.19
2023-05-13T20:49:51.860Z,101902.75
2023-05-13T20:52:18.446Z,101960.97
2023-05-13T20:54:45.038Z,101952.22
2023-05-13T20:57:11.649Z,101979.41
2023-05-13T20:59:38.266Z,101983.28
2023-05-13T21:02:05.072Z,101952.63
2023-05-13T21:04:31.736Z,101983.72
2023-05-13T21:06:58.418Z,101983.59
2023-05-13T21:09:25.127Z,101964.47
2023-05-13T21:11:51.693Z,101979.13
2023-05-13T21:14:18.336Z,101986.47
2023-05-13T21:16:44.944Z,101901.53
2023-05-13T21:19:22.888Z,101981.97
2023-05-13T21:21:50.216Z,101976.78
2023-05-13T21:24:18.403Z,101985.41
2023-05-13T21:26:45.803Z,101983.56
2023-05-13T21:29:12.518Z,101962.72
2023-05-13T21:31:39.323Z,101933.81
2023-05-13T21:34:06.029Z,101976.59
2023-05-13T21:36:33.979Z,101981.38
2023-05-13T21:39:00.702Z,101953.44
2023-05-13T21:41:27.493Z,101984.91
2023-05-13T21:43:54.253Z,101975.19
2023-05-13T21:46:20.933Z,101973.97
2023-05-13T21:48:48.233Z,101928.59
2023-05-13T21:51:14.965Z,101949.25
2023-05-13T21:53:41.552Z,101978.53
2023-05-13T21:56:08.175Z,101985.34
2023-05-13T21:58:34.901Z,101983.63
2023-05-13T22:01:01.960Z,101987.34
2023-05-13T22:03:28.648Z,101975.81
2023-05-13T22:08:47.483Z,101988.59
2023-05-13T22:11:14.899Z,101987.50
2023-05-13T22:13:41.493Z,101992.13
2023-05-13T22:16:08.449Z,101994.63
2023-05-13T22:18:35.369Z,101961.88
2023-05-13T22:21:02.152Z,101995.09
2023-05-13T22:23:28.681Z,101974.28
2023-05-13T22:25:55.224Z,101918.44
2023-05-13T22:28:21.814Z,101992.72
2023-05-13T22:30:51.715Z,101998.38
2023-05-13T22:33:19.787Z,101981.47
2023-05-13T22:35:47.786Z,101989.66
2023-05-13T22:38:14.645Z,101978.28
2023-05-13T22:40:50.717Z,101992.84
2023-05-13T22:43:18.004Z,101990.91
2023-05-13T22:45:51.799Z,101980.84
2023-05-13T22:48:18.594Z,101927.19
2023-05-13T22:50:48.069Z,101985.16
2023-05-13T22:53:20.273Z,101998.50
2023-05-13T22:55:47.234Z,101982.97
2023-05-13T22:58:17.452Z,101942.75
2023-05-13T23:00:51.192Z,101961.72
2023-05-13T23:03:21.300Z,101965.28
2023-05-13T23:05:47.890Z,101971.22
2023-05-13T23:08:14.648Z,101982.91
2023-05-13T23:10:41.291Z,101980.31
2023-05-13T23:13:07.920Z,101927.19
2023-05-13T23:15:37.139Z,101975.88
2023-05-13T23:18:03.859Z,101925.00
2023-05-13T23:20:30.673Z,101914.16
2023-05-13T23:22:57.280Z,101970.81
2023-05-13T23:25:23.860Z,101974.78
2023-05-13T23:27:51.462Z,101972.06
2023-05-13T23:30:18.284Z,101976.84
2023-05-13T23:32:45.090Z,101930.44
2023-05-13T23:35:12.691Z,101983.75
2023-05-13T23:37:39.279Z,101976.13
2023-05-13T23:40:06.814Z,101988.91
2023-05-13T23:42:33.429Z,101986.47
2023-05-13T23:44:59.972Z,101912.56
2023-05-13T23:47:26.546Z,101927.22
2023-05-13T23:49:53.130Z,101970.47
2023-05-13T23:52:19.740Z,101961.31
2023-05-13T23:54:46.370Z,101978.72
2023-05-13T23:57:12.926Z,101960.47
2023-05-13T23:59:39.525Z,101973.56
